Argyle, Illinois
Current Conditions -  °F | °C
As of 3:54 AM on Sunday 21 Dec 2014 (Local Time) from KRFD Reporting Station
Haze Haze  
Wind Chill: 26°   Ceiling: 2200
Heat Index: 32°   Visibility: 6mi
Dew Point: 29°   Wind: 6mph
Humidity: 88%   Direction: 150°SSE
Pressure: 30.2"   Gusts: NA
Location:  42.3911°N, 88.9094°W
Report Text: KRFD 210954Z 15005KT 6SM BR OVC022 00/M02 A3020 RMK AO2 SNB16E25 SLP233 P0000 T00001017
Loading
Personal Weather Stations






























Interactive Weather Map New forecast layout! Learn more

10-Day Weather Forecast

Advertisements
Track Severe Weather on mobile